sensor_id;sensor_type;location;lat;lon;timestamp;temperature;humidity
2010;DHT22;1008;47.404;8.502;2024-01-11T00:01:15;0.40;99.90
2010;DHT22;1008;47.404;8.502;2024-01-11T00:03:42;0.40;99.90
2010;DHT22;1008;47.404;8.502;2024-01-11T00:06:09;0.50;99.90
2010;DHT22;1008;47.404;8.502;2024-01-11T00:08:35;0.40;99.90
2010;DHT22;1008;47.404;8.502;2024-01-11T00:11:02;0.50;99.90
2010;DHT22;1008;47.404;8.502;2024-01-11T00:13:29;0.50;99.90
2010;DHT22;1008;47.404;8.502;2024-01-11T00:15:55;0.50;99.90
2010;DHT22;1008;47.404;8.502;2024-01-11T00:18:23;0.40;99.90
2010;DHT22;1008;47.404;8.502;2024-01-11T00:20:50;0.40;99.90
2010;DHT22;1008;47.404;8.502;2024-01-11T00:23:17;0.40;99.90
2010;DHT22;1008;47.404;8.502;2024-01-11T00:25:44;0.40;99.90
2010;DHT22;1008;47.404;8.502;2024-01-11T00:28:11;0.50;99.90
2010;DHT22;1008;47.404;8.502;2024-01-11T00:30:37;0.50;99.90
2010;DHT22;1008;47.404;8.502;2024-01-11T00:33:04;0.30;99.90
2010;DHT22;1008;47.404;8.502;2024-01-11T00:35:33;0.40;99.90
2010;DHT22;1008;47.404;8.502;2024-01-11T00:38:00;0.40;99.90
2010;DHT22;1008;47.404;8.502;2024-01-11T00:40:27;0.50;99.90
2010;DHT22;1008;47.404;8.502;2024-01-11T00:42:53;0.50;99.90
2010;DHT22;1008;47.404;8.502;2024-01-11T00:45:20;0.50;99.90
2010;DHT22;1008;47.404;8.502;2024-01-11T00:47:47;0.40;99.90
2010;DHT22;1008;47.404;8.502;2024-01-11T00:50:14;0.50;99.90
2010;DHT22;1008;47.404;8.502;2024-01-11T00:52:42;0.50;99.90
2010;DHT22;1008;47.404;8.502;2024-01-11T00:55:08;0.60;99.90
2010;DHT22;1008;47.404;8.502;2024-01-11T00:57:35;0.60;99.90
2010;DHT22;1008;47.404;8.502;2024-01-11T01:00:02;0.60;99.90
2010;DHT22;1008;47.404;8.502;2024-01-11T01:02:28;0.50;99.90
2010;DHT22;1008;47.404;8.502;2024-01-11T01:04:55;0.50;99.90
2010;DHT22;1008;47.404;8.502;2024-01-11T01:07:22;0.50;99.90
2010;DHT22;1008;47.404;8.502;2024-01-11T01:09:50;0.40;99.90
2010;DHT22;1008;47.404;8.502;2024-01-11T01:12:16;0.20;99.90
2010;DHT22;1008;47.404;8.502;2024-01-11T01:14:43;0.30;99.90
2010;DHT22;1008;47.404;8.502;2024-01-11T01:17:10;0.40;99.90
2010;DHT22;1008;47.404;8.502;2024-01-11T01:19:37;0.40;99.90
2010;DHT22;1008;47.404;8.502;2024-01-11T01:22:03;0.40;99.90
2010;DHT22;1008;47.404;8.502;2024-01-11T01:24:31;0.40;99.90
2010;DHT22;1008;47.404;8.502;2024-01-11T01:26:59;0.30;99.90
2010;DHT22;1008;47.404;8.502;2024-01-11T01:29:26;0.30;99.90
2010;DHT22;1008;47.404;8.502;2024-01-11T01:31:53;0.40;99.90
2010;DHT22;1008;47.404;8.502;2024-01-11T01:34:19;0.30;99.90
2010;DHT22;1008;47.404;8.502;2024-01-11T01:36:46;0.20;99.90
2010;DHT22;1008;47.404;8.502;2024-01-11T01:39:13;0.30;99.90
2010;DHT22;1008;47.404;8.502;2024-01-11T01:41:40;0.40;99.90
2010;DHT22;1008;47.404;8.502;2024-01-11T01:44:08;0.30;99.90
2010;DHT22;1008;47.404;8.502;2024-01-11T01:46:34;0.40;99.90
2010;DHT22;1008;47.404;8.502;2024-01-11T01:49:02;0.30;99.90
2010;DHT22;1008;47.404;8.502;2024-01-11T01:51:29;0.30;99.90
2010;DHT22;1008;47.404;8.502;2024-01-11T01:53:57;0.20;99.90
2010;DHT22;1008;47.404;8.502;2024-01-11T01:56:25;0.30;99.90
2010;DHT22;1008;47.404;8.502;2024-01-11T01:58:53;0.30;99.90
2010;DHT22;1008;47.404;8.502;2024-01-11T02:01:23;0.30;99.90
2010;DHT22;1008;47.404;8.502;2024-01-11T02:03:50;0.20;99.90
2010;DHT22;1008;47.404;8.502;2024-01-11T02:06:18;0.20;99.90
2010;DHT22;1008;47.404;8.502;2024-01-11T02:08:49;0.20;99.90
2010;DHT22;1008;47.404;8.502;2024-01-11T02:13:46;0.10;99.90
2010;DHT22;1008;47.404;8.502;2024-01-11T02:16:13;0.20;99.90
2010;DHT22;1008;47.404;8.502;2024-01-11T02:18:41;0.20;99.90
2010;DHT22;1008;47.404;8.502;2024-01-11T02:21:11;0.20;99.90
2010;DHT22;1008;47.404;8.502;2024-01-11T02:23:43;0.40;99.90
2010;DHT22;1008;47.404;8.502;2024-01-11T02:26:13;0.10;99.90
2010;DHT22;1008;47.404;8.502;2024-01-11T02:28:43;0.00;99.90
2010;DHT22;1008;47.404;8.502;2024-01-11T02:31:10;0.20;99.90
2010;DHT22;1008;47.404;8.502;2024-01-11T02:33:38;0.30;99.90
2010;DHT22;1008;47.404;8.502;2024-01-11T02:36:06;0.40;99.90
2010;DHT22;1008;47.404;8.502;2024-01-11T02:38:33;0.30;99.90
2010;DHT22;1008;47.404;8.502;2024-01-11T02:41:01;0.20;99.90
2010;DHT22;1008;47.404;8.502;2024-01-11T02:43:29;0.10;99.90
2010;DHT22;1008;47.404;8.502;2024-01-11T02:45:55;0.10;99.90
2010;DHT22;1008;47.404;8.502;2024-01-11T02:48:27;0.20;99.90
2010;DHT22;1008;47.404;8.502;2024-01-11T02:50:55;0.10;99.90
2010;DHT22;1008;47.404;8.502;2024-01-11T02:53:21;0.10;99.90
2010;DHT22;1008;47.404;8.502;2024-01-11T02:55:49;0.10;99.90
2010;DHT22;1008;47.404;8.502;2024-01-11T02:58:16;0.10;99.90
2010;DHT22;1008;47.404;8.502;2024-01-11T03:00:44;0.20;99.90
2010;DHT22;1008;47.404;8.502;2024-01-11T03:03:11;0.10;99.90
2010;DHT22;1008;47.404;8.502;2024-01-11T03:05:37;0.00;99.90
2010;DHT22;1008;47.404;8.502;2024-01-11T03:08:05;0.00;99.90
2010;DHT22;1008;47.404;8.502;2024-01-11T03:10:31;0.00;99.90
2010;DHT22;1008;47.404;8.502;2024-01-11T03:12:58;0.20;99.90
2010;DHT22;1008;47.404;8.502;2024-01-11T03:15:25;0.00;99.90
2010;DHT22;1008;47.404;8.502;2024-01-11T03:17:53;0.00;99.90
2010;DHT22;1008;47.404;8.502;2024-01-11T03:20:20;0.20;99.90
2010;DHT22;1008;47.404;8.502;2024-01-11T03:22:50;0.10;99.90
2010;DHT22;1008;47.404;8.502;2024-01-11T03:25:16;0.00;99.90
2010;DHT22;1008;47.404;8.502;2024-01-11T03:27:43;0.10;99.90
2010;DHT22;1008;47.404;8.502;2024-01-11T03:30:10;-0.10;99.90
2010;DHT22;1008;47.404;8.502;2024-01-11T03:32:37;-0.10;99.90
2010;DHT22;1008;47.404;8.502;2024-01-11T03:35:07;-0.10;99.90
2010;DHT22;1008;47.404;8.502;2024-01-11T03:37:33;-0.20;99.90
2010;DHT22;1008;47.404;8.502;2024-01-11T03:40:00;-0.10;99.90
2010;DHT22;1008;47.404;8.502;2024-01-11T03:42:27;0.00;99.90
2010;DHT22;1008;47.404;8.502;2024-01-11T03:44:54;0.00;99.90
2010;DHT22;1008;47.404;8.502;2024-01-11T03:47:21;0.00;99.90
2010;DHT22;1008;47.404;8.502;2024-01-11T03:49:47;0.00;99.90
2010;DHT22;1008;47.404;8.502;2024-01-11T03:52:15;0.00;99.90
2010;DHT22;1008;47.404;8.502;2024-01-11T03:54:42;0.00;99.90
2010;DHT22;1008;47.404;8.502;2024-01-11T03:57:09;0.00;99.90
2010;DHT22;1008;47.404;8.502;2024-01-11T03:59:35;0.10;99.90
2010;DHT22;1008;47.404;8.502;2024-01-11T04:02:02;0.10;99.90
2010;DHT22;1008;47.404;8.502;2024-01-11T04:04:29;0.20;99.90
2010;DHT22;1008;47.404;8.502;2024-01-11T04:06:55;0.20;99.90
2010;DHT22;1008;47.404;8.502;2024-01-11T04:09:24;0.10;99.90
2010;DHT22;1008;47.404;8.502;2024-01-11T04:11:50;0.00;99.90
2010;DHT22;1008;47.404;8.502;2024-01-11T04:14:17;0.10;99.90
2010;DHT22;1008;47.404;8.502;2024-01-11T04:16:44;0.00;99.90
2010;DHT22;1008;47.404;8.502;2024-01-11T04:19:11;0.10;99.90
2010;DHT22;1008;47.404;8.502;2024-01-11T04:21:38;0.10;99.90
2010;DHT22;1008;47.404;8.502;2024-01-11T04:24:05;0.20;99.90
2010;DHT22;1008;47.404;8.502;2024-01-11T04:26:33;0.10;99.90
2010;DHT22;1008;47.404;8.502;2024-01-11T04:29:00;0.10;99.90
2010;DHT22;1008;47.404;8.502;2024-01-11T04:31:27;0.10;99.90
2010;DHT22;1008;47.404;8.502;2024-01-11T04:33:54;0.20;99.90
2010;DHT22;1008;47.404;8.502;2024-01-11T04:36:21;0.20;99.90
2010;DHT22;1008;47.404;8.502;2024-01-11T04:38:47;0.10;99.90
2010;DHT22;1008;47.404;8.502;2024-01-11T04:41:15;0.00;99.90
2010;DHT22;1008;47.404;8.502;2024-01-11T04:43:44;0.20;99.90
2010;DHT22;1008;47.404;8.502;2024-01-11T04:46:15;0.00;99.90
2010;DHT22;1008;47.404;8.502;2024-01-11T04:48:42;0.00;99.90
2010;DHT22;1008;47.404;8.502;2024-01-11T04:51:08;0.00;99.90
2010;DHT22;1008;47.404;8.502;2024-01-11T04:53:37;-0.10;99.90
2010;DHT22;1008;47.404;8.502;2024-01-11T04:56:04;-0.10;99.90
2010;DHT22;1008;47.404;8.502;2024-01-11T04:58:31;-0.10;99.90
2010;DHT22;1008;47.404;8.502;2024-01-11T05:00:59;0.00;99.90
2010;DHT22;1008;47.404;8.502;2024-01-11T05:03:27;0.00;99.90
2010;DHT22;1008;47.404;8.502;2024-01-11T05:05:54;-0.10;99.90
2010;DHT22;1008;47.404;8.502;2024-01-11T05:08:20;0.00;99.90
2010;DHT22;1008;47.404;8.502;2024-01-11T05:10:47;0.00;99.90
2010;DHT22;1008;47.404;8.502;2024-01-11T05:13:14;0.00;99.90
2010;DHT22;1008;47.404;8.502;2024-01-11T05:15:41;0.10;99.90
2010;DHT22;1008;47.404;8.502;2024-01-11T05:18:09;0.10;99.90
2010;DHT22;1008;47.404;8.502;2024-01-11T05:20:36;0.10;99.90
2010;DHT22;1008;47.404;8.502;2024-01-11T05:23:03;0.10;99.90
2010;DHT22;1008;47.404;8.502;2024-01-11T05:25:29;0.20;99.90
2010;DHT22;1008;47.404;8.502;2024-01-11T05:27:59;0.30;99.90
2010;DHT22;1008;47.404;8.502;2024-01-11T05:30:26;0.10;99.90
2010;DHT22;1008;47.404;8.502;2024-01-11T05:32:52;0.10;99.90
2010;DHT22;1008;47.404;8.502;2024-01-11T05:35:20;0.30;99.90
2010;DHT22;1008;47.404;8.502;2024-01-11T05:37:47;0.10;99.90
2010;DHT22;1008;47.404;8.502;2024-01-11T05:40:14;0.00;99.90
2010;DHT22;1008;47.404;8.502;2024-01-11T05:42:41;0.00;99.90
2010;DHT22;1008;47.404;8.502;2024-01-11T05:45:08;0.20;99.90
2010;DHT22;1008;47.404;8.502;2024-01-11T05:47:35;0.10;99.90
2010;DHT22;1008;47.404;8.502;2024-01-11T05:50:02;0.00;99.90
2010;DHT22;1008;47.404;8.502;2024-01-11T05:52:30;0.00;99.90
2010;DHT22;1008;47.404;8.502;2024-01-11T05:54:57;0.10;99.90
2010;DHT22;1008;47.404;8.502;2024-01-11T05:57:24;0.00;99.90
2010;DHT22;1008;47.404;8.502;2024-01-11T05:59:51;0.10;99.90
2010;DHT22;1008;47.404;8.502;2024-01-11T06:02:17;0.20;99.90
2010;DHT22;1008;47.404;8.502;2024-01-11T06:04:46;0.20;99.90
2010;DHT22;1008;47.404;8.502;2024-01-11T06:07:12;0.10;99.90
2010;DHT22;1008;47.404;8.502;2024-01-11T06:09:41;0.10;99.90
2010;DHT22;1008;47.404;8.502;2024-01-11T06:12:08;0.10;99.90
2010;DHT22;1008;47.404;8.502;2024-01-11T06:14:35;0.20;99.90
2010;DHT22;1008;47.404;8.502;2024-01-11T06:17:02;0.10;99.90
2010;DHT22;1008;47.404;8.502;2024-01-11T06:19:29;0.10;99.90
2010;DHT22;1008;47.404;8.502;2024-01-11T06:21:55;0.20;99.90
2010;DHT22;1008;47.404;8.502;2024-01-11T06:24:22;0.20;99.90
2010;DHT22;1008;47.404;8.502;2024-01-11T06:26:50;0.10;99.90
2010;DHT22;1008;47.404;8.502;2024-01-11T06:29:17;0.20;99.90
2010;DHT22;1008;47.404;8.502;2024-01-11T06:31:44;0.20;99.90
2010;DHT22;1008;47.404;8.502;2024-01-11T06:34:10;0.10;99.90
2010;DHT22;1008;47.404;8.502;2024-01-11T06:36:37;0.20;99.90
2010;DHT22;1008;47.404;8.502;2024-01-11T06:39:04;0.00;99.90
2010;DHT22;1008;47.404;8.502;2024-01-11T06:41:31;0.10;99.90
2010;DHT22;1008;47.404;8.502;2024-01-11T06:43:59;0.10;99.90
2010;DHT22;1008;47.404;8.502;2024-01-11T06:46:25;0.00;99.90
2010;DHT22;1008;47.404;8.502;2024-01-11T06:48:52;0.00;99.90
2010;DHT22;1008;47.404;8.502;2024-01-11T06:51:21;0.00;99.90
2010;DHT22;1008;47.404;8.502;2024-01-11T06:53:48;0.00;99.90
2010;DHT22;1008;47.404;8.502;2024-01-11T06:56:15;0.00;99.90
2010;DHT22;1008;47.404;8.502;2024-01-11T06:58:43;0.00;99.90
2010;DHT22;1008;47.404;8.502;2024-01-11T07:01:11;0.00;99.90
2010;DHT22;1008;47.404;8.502;2024-01-11T07:03:38;0.00;99.90
2010;DHT22;1008;47.404;8.502;2024-01-11T07:06:05;0.00;99.90
2010;DHT22;1008;47.404;8.502;2024-01-11T07:08:32;0.00;99.90
2010;DHT22;1008;47.404;8.502;2024-01-11T07:11:00;-0.10;99.90
2010;DHT22;1008;47.404;8.502;2024-01-11T07:13:28;0.00;99.90
2010;DHT22;1008;47.404;8.502;2024-01-11T07:15:55;0.10;99.90
2010;DHT22;1008;47.404;8.502;2024-01-11T07:18:25;0.10;99.90
2010;DHT22;1008;47.404;8.502;2024-01-11T07:20:52;0.00;99.90
2010;DHT22;1008;47.404;8.502;2024-01-11T07:23:19;0.10;99.90
2010;DHT22;1008;47.404;8.502;2024-01-11T07:25:46;0.00;99.90
2010;DHT22;1008;47.404;8.502;2024-01-11T07:28:12;0.00;99.90
2010;DHT22;1008;47.404;8.502;2024-01-11T07:30:39;0.00;99.90
2010;DHT22;1008;47.404;8.502;2024-01-11T07:33:06;-0.10;99.90
2010;DHT22;1008;47.404;8.502;2024-01-11T07:35:34;-0.20;99.90
2010;DHT22;1008;47.404;8.502;2024-01-11T07:38:01;-0.10;99.90
2010;DHT22;1008;47.404;8.502;2024-01-11T07:40:27;-0.10;99.90
2010;DHT22;1008;47.404;8.502;2024-01-11T07:42:54;0.00;99.90
2010;DHT22;1008;47.404;8.502;2024-01-11T07:45:21;0.10;99.90
2010;DHT22;1008;47.404;8.502;2024-01-11T07:47:48;0.20;99.90
2010;DHT22;1008;47.404;8.502;2024-01-11T07:50:14;0.20;99.90
2010;DHT22;1008;47.404;8.502;2024-01-11T07:52:42;0.20;99.90
2010;DHT22;1008;47.404;8.502;2024-01-11T07:55:10;0.20;99.90
2010;DHT22;1008;47.404;8.502;2024-01-11T07:57:38;0.10;99.90
2010;DHT22;1008;47.404;8.502;2024-01-11T08:00:06;0.10;99.90
2010;DHT22;1008;47.404;8.502;2024-01-11T08:02:33;0.30;99.90
2010;DHT22;1008;47.404;8.502;2024-01-11T08:05:00;0.40;99.90
2010;DHT22;1008;47.404;8.502;2024-01-11T08:07:27;0.30;99.90
2010;DHT22;1008;47.404;8.502;2024-01-11T08:09:55;0.20;99.90
2010;DHT22;1008;47.404;8.502;2024-01-11T08:12:22;0.20;99.90
2010;DHT22;1008;47.404;8.502;2024-01-11T08:14:49;0.10;99.90
2010;DHT22;1008;47.404;8.502;2024-01-11T08:17:16;0.10;99.90
2010;DHT22;1008;47.404;8.502;2024-01-11T08:19:43;0.10;99.90
2010;DHT22;1008;47.404;8.502;2024-01-11T08:22:10;0.00;99.90
2010;DHT22;1008;47.404;8.502;2024-01-11T08:24:37;0.00;99.90
2010;DHT22;1008;47.404;8.502;2024-01-11T08:27:05;0.10;99.90
2010;DHT22;1008;47.404;8.502;2024-01-11T08:29:32;0.20;99.90
2010;DHT22;1008;47.404;8.502;2024-01-11T08:31:59;0.20;99.90
2010;DHT22;1008;47.404;8.502;2024-01-11T08:34:29;0.30;99.90
2010;DHT22;1008;47.404;8.502;2024-01-11T08:36:56;0.10;99.90
2010;DHT22;1008;47.404;8.502;2024-01-11T08:39:23;0.00;99.90
2010;DHT22;1008;47.404;8.502;2024-01-11T08:41:50;0.10;99.90
2010;DHT22;1008;47.404;8.502;2024-01-11T08:44:19;0.20;99.90
2010;DHT22;1008;47.404;8.502;2024-01-11T08:46:45;0.30;99.90
2010;DHT22;1008;47.404;8.502;2024-01-11T08:49:12;0.10;99.90
2010;DHT22;1008;47.404;8.502;2024-01-11T08:51:39;0.10;99.90
2010;DHT22;1008;47.404;8.502;2024-01-11T08:54:06;0.20;99.90
2010;DHT22;1008;47.404;8.502;2024-01-11T08:56:34;0.00;99.90
2010;DHT22;1008;47.404;8.502;2024-01-11T08:59:01;0.10;99.90
2010;DHT22;1008;47.404;8.502;2024-01-11T09:01:29;0.20;99.90
2010;DHT22;1008;47.404;8.502;2024-01-11T09:03:57;0.20;99.90
2010;DHT22;1008;47.404;8.502;2024-01-11T09:06:24;0.10;99.90
2010;DHT22;1008;47.404;8.502;2024-01-11T09:08:51;0.20;99.90
2010;DHT22;1008;47.404;8.502;2024-01-11T09:11:17;0.10;99.90
2010;DHT22;1008;47.404;8.502;2024-01-11T09:13:44;0.10;99.90
2010;DHT22;1008;47.404;8.502;2024-01-11T09:16:14;0.10;99.90
2010;DHT22;1008;47.404;8.502;2024-01-11T09:18:42;0.10;99.90
2010;DHT22;1008;47.404;8.502;2024-01-11T09:21:10;0.10;99.90
2010;DHT22;1008;47.404;8.502;2024-01-11T09:23:37;0.10;99.90
2010;DHT22;1008;47.404;8.502;2024-01-11T09:26:04;0.00;99.90
2010;DHT22;1008;47.404;8.502;2024-01-11T09:28:31;0.00;99.90
2010;DHT22;1008;47.404;8.502;2024-01-11T09:30:58;0.00;99.90
2010;DHT22;1008;47.404;8.502;2024-01-11T09:33:27;0.00;99.90
2010;DHT22;1008;47.404;8.502;2024-01-11T09:35:55;-0.10;99.90
2010;DHT22;1008;47.404;8.502;2024-01-11T09:38:22;-0.10;99.90
2010;DHT22;1008;47.404;8.502;2024-01-11T09:40:59;-0.10;99.90
2010;DHT22;1008;47.404;8.502;2024-01-11T09:43:28;-0.10;99.90
2010;DHT22;1008;47.404;8.502;2024-01-11T09:45:56;-0.10;99.90
2010;DHT22;1008;47.404;8.502;2024-01-11T09:48:23;-0.10;99.90
2010;DHT22;1008;47.404;8.502;2024-01-11T09:50:51;0.00;99.90
2010;DHT22;1008;47.404;8.502;2024-01-11T09:53:20;-0.10;99.90
2010;DHT22;1008;47.404;8.502;2024-01-11T09:55:48;-0.20;99.90
2010;DHT22;1008;47.404;8.502;2024-01-11T09:58:17;0.00;99.90
2010;DHT22;1008;47.404;8.502;2024-01-11T10:00:45;-0.10;99.90
2010;DHT22;1008;47.404;8.502;2024-01-11T10:03:13;0.00;99.90
2010;DHT22;1008;47.404;8.502;2024-01-11T10:05:40;-0.10;99.90
2010;DHT22;1008;47.404;8.502;2024-01-11T10:08:08;-0.20;99.90
2010;DHT22;1008;47.404;8.502;2024-01-11T10:10:36;0.00;99.90
2010;DHT22;1008;47.404;8.502;2024-01-11T10:13:05;0.00;99.90
2010;DHT22;1008;47.404;8.502;2024-01-11T10:15:32;0.00;99.90
2010;DHT22;1008;47.404;8.502;2024-01-11T10:17:58;-0.10;99.90
2010;DHT22;1008;47.404;8.502;2024-01-11T10:20:25;0.20;99.90
2010;DHT22;1008;47.404;8.502;2024-01-11T10:22:56;0.20;99.90
2010;DHT22;1008;47.404;8.502;2024-01-11T10:25:23;0.20;99.90
2010;DHT22;1008;47.404;8.502;2024-01-11T10:27:51;0.10;99.90
2010;DHT22;1008;47.404;8.502;2024-01-11T10:30:18;0.10;99.90
2010;DHT22;1008;47.404;8.502;2024-01-11T10:32:47;0.20;99.90
2010;DHT22;1008;47.404;8.502;2024-01-11T10:35:15;0.10;99.90
2010;DHT22;1008;47.404;8.502;2024-01-11T10:37:43;0.20;99.90
2010;DHT22;1008;47.404;8.502;2024-01-11T10:40:11;0.30;99.90
2010;DHT22;1008;47.404;8.502;2024-01-11T10:42:41;0.10;99.90
2010;DHT22;1008;47.404;8.502;2024-01-11T10:45:14;0.20;99.90
2010;DHT22;1008;47.404;8.502;2024-01-11T10:47:55;0.10;99.90
2010;DHT22;1008;47.404;8.502;2024-01-11T10:50:23;0.20;99.90
2010;DHT22;1008;47.404;8.502;2024-01-11T10:53:00;0.30;99.90
2010;DHT22;1008;47.404;8.502;2024-01-11T10:55:31;0.20;99.90
2010;DHT22;1008;47.404;8.502;2024-01-11T10:57:59;0.10;99.90
2010;DHT22;1008;47.404;8.502;2024-01-11T11:00:28;0.20;99.90
2010;DHT22;1008;47.404;8.502;2024-01-11T11:02:55;0.20;99.90
2010;DHT22;1008;47.404;8.502;2024-01-11T11:05:22;0.20;99.90
2010;DHT22;1008;47.404;8.502;2024-01-11T11:07:50;0.00;99.90
2010;DHT22;1008;47.404;8.502;2024-01-11T11:10:18;0.00;99.90
2010;DHT22;1008;47.404;8.502;2024-01-11T11:12:45;-0.10;99.90
2010;DHT22;1008;47.404;8.502;2024-01-11T11:15:12;-0.20;99.90
2010;DHT22;1008;47.404;8.502;2024-01-11T11:17:42;-0.10;99.90
2010;DHT22;1008;47.404;8.502;2024-01-11T11:20:11;-0.20;99.90
2010;DHT22;1008;47.404;8.502;2024-01-11T11:22:40;-0.20;99.90
2010;DHT22;1008;47.404;8.502;2024-01-11T11:25:08;-0.30;99.90
2010;DHT22;1008;47.404;8.502;2024-01-11T11:27:35;-0.40;99.90
2010;DHT22;1008;47.404;8.502;2024-01-11T11:30:03;-0.40;99.90
2010;DHT22;1008;47.404;8.502;2024-01-11T11:32:37;-0.40;99.90
2010;DHT22;1008;47.404;8.502;2024-01-11T11:35:06;-0.40;99.90
2010;DHT22;1008;47.404;8.502;2024-01-11T11:37:35;-0.10;99.90
2010;DHT22;1008;47.404;8.502;2024-01-11T11:40:03;-0.30;99.90
2010;DHT22;1008;47.404;8.502;2024-01-11T11:42:30;-0.20;99.90
2010;DHT22;1008;47.404;8.502;2024-01-11T11:44:58;-0.20;99.90
2010;DHT22;1008;47.404;8.502;2024-01-11T11:47:33;-0.20;99.90
2010;DHT22;1008;47.404;8.502;2024-01-11T11:50:06;-0.10;99.90
2010;DHT22;1008;47.404;8.502;2024-01-11T11:52:33;0.00;99.90
2010;DHT22;1008;47.404;8.502;2024-01-11T11:55:01;0.00;99.90
2010;DHT22;1008;47.404;8.502;2024-01-11T11:57:28;-0.10;99.90
2010;DHT22;1008;47.404;8.502;2024-01-11T11:59:56;-0.30;99.90
2010;DHT22;1008;47.404;8.502;2024-01-11T12:02:25;-0.20;99.90
2010;DHT22;1008;47.404;8.502;2024-01-11T12:04:52;-0.20;99.90
2010;DHT22;1008;47.404;8.502;2024-01-11T12:07:20;-0.20;99.90
2010;DHT22;1008;47.404;8.502;2024-01-11T12:09:48;-0.10;99.90
2010;DHT22;1008;47.404;8.502;2024-01-11T12:12:15;0.00;99.90
2010;DHT22;1008;47.404;8.502;2024-01-11T12:14:43;0.00;99.90
2010;DHT22;1008;47.404;8.502;2024-01-11T12:17:11;-0.20;99.90
2010;DHT22;1008;47.404;8.502;2024-01-11T12:19:38;-0.30;99.90
2010;DHT22;1008;47.404;8.502;2024-01-11T12:22:05;-0.20;99.90
2010;DHT22;1008;47.404;8.502;2024-01-11T12:24:33;0.00;99.90
2010;DHT22;1008;47.404;8.502;2024-01-11T12:27:01;0.10;99.90
2010;DHT22;1008;47.404;8.502;2024-01-11T12:29:28;0.10;99.90
2010;DHT22;1008;47.404;8.502;2024-01-11T12:31:57;0.10;99.90
2010;DHT22;1008;47.404;8.502;2024-01-11T12:34:24;0.10;99.90
2010;DHT22;1008;47.404;8.502;2024-01-11T12:36:52;-0.10;99.90
2010;DHT22;1008;47.404;8.502;2024-01-11T12:39:20;-0.10;99.90
2010;DHT22;1008;47.404;8.502;2024-01-11T12:41:50;0.00;99.90
2010;DHT22;1008;47.404;8.502;2024-01-11T12:44:17;-0.20;99.90
2010;DHT22;1008;47.404;8.502;2024-01-11T12:46:47;-0.20;99.90
2010;DHT22;1008;47.404;8.502;2024-01-11T12:49:13;-0.20;99.90
2010;DHT22;1008;47.404;8.502;2024-01-11T12:51:40;-0.20;99.90
2010;DHT22;1008;47.404;8.502;2024-01-11T12:54:11;-0.20;99.90
2010;DHT22;1008;47.404;8.502;2024-01-11T12:56:41;-0.10;99.90
2010;DHT22;1008;47.404;8.502;2024-01-11T12:59:10;-0.20;99.90
2010;DHT22;1008;47.404;8.502;2024-01-11T13:01:38;-0.30;99.90
2010;DHT22;1008;47.404;8.502;2024-01-11T13:04:05;-0.20;99.90
2010;DHT22;1008;47.404;8.502;2024-01-11T13:06:33;-0.10;99.90
2010;DHT22;1008;47.404;8.502;2024-01-11T13:09:01;-0.30;99.90
2010;DHT22;1008;47.404;8.502;2024-01-11T13:11:28;-0.20;99.90
2010;DHT22;1008;47.404;8.502;2024-01-11T13:13:55;-0.20;99.90
2010;DHT22;1008;47.404;8.502;2024-01-11T13:16:26;-0.10;99.90
2010;DHT22;1008;47.404;8.502;2024-01-11T13:18:52;-0.20;99.90
2010;DHT22;1008;47.404;8.502;2024-01-11T13:21:19;-0.10;99.90
2010;DHT22;1008;47.404;8.502;2024-01-11T13:23:46;-0.20;99.90
2010;DHT22;1008;47.404;8.502;2024-01-11T13:26:13;-0.40;99.90
2010;DHT22;1008;47.404;8.502;2024-01-11T13:28:39;-0.30;99.90
2010;DHT22;1008;47.404;8.502;2024-01-11T13:31:06;-0.60;99.90
2010;DHT22;1008;47.404;8.502;2024-01-11T13:33:36;-0.60;99.90
2010;DHT22;1008;47.404;8.502;2024-01-11T13:36:04;-0.40;99.90
2010;DHT22;1008;47.404;8.502;2024-01-11T13:38:31;-0.40;99.90
2010;DHT22;1008;47.404;8.502;2024-01-11T13:40:58;-0.30;99.90
2010;DHT22;1008;47.404;8.502;2024-01-11T13:43:24;-0.40;99.90
2010;DHT22;1008;47.404;8.502;2024-01-11T13:45:51;-0.50;99.90
2010;DHT22;1008;47.404;8.502;2024-01-11T13:48:20;-0.50;99.90
2010;DHT22;1008;47.404;8.502;2024-01-11T13:50:48;-0.50;99.90
2010;DHT22;1008;47.404;8.502;2024-01-11T13:53:14;-0.60;99.90
2010;DHT22;1008;47.404;8.502;2024-01-11T13:55:41;-0.40;99.90
2010;DHT22;1008;47.404;8.502;2024-01-11T13:58:09;-0.30;99.90
2010;DHT22;1008;47.404;8.502;2024-01-11T14:00:38;-0.20;99.90
2010;DHT22;1008;47.404;8.502;2024-01-11T14:03:04;-0.20;99.90
2010;DHT22;1008;47.404;8.502;2024-01-11T14:05:31;-0.30;99.90
2010;DHT22;1008;47.404;8.502;2024-01-11T14:07:59;-0.40;99.90
2010;DHT22;1008;47.404;8.502;2024-01-11T14:10:27;-0.40;99.90
2010;DHT22;1008;47.404;8.502;2024-01-11T14:12:53;-0.40;99.90
2010;DHT22;1008;47.404;8.502;2024-01-11T14:15:21;-0.20;99.90
2010;DHT22;1008;47.404;8.502;2024-01-11T14:17:47;-0.30;99.90
2010;DHT22;1008;47.404;8.502;2024-01-11T14:20:14;-0.40;99.90
2010;DHT22;1008;47.404;8.502;2024-01-11T14:22:41;-0.30;99.90
2010;DHT22;1008;47.404;8.502;2024-01-11T14:25:14;-0.20;99.90
2010;DHT22;1008;47.404;8.502;2024-01-11T14:27:41;-0.30;99.90
2010;DHT22;1008;47.404;8.502;2024-01-11T14:30:10;-0.30;99.90
2010;DHT22;1008;47.404;8.502;2024-01-11T14:32:37;-0.30;99.90
2010;DHT22;1008;47.404;8.502;2024-01-11T14:35:05;-0.10;99.90
2010;DHT22;1008;47.404;8.502;2024-01-11T14:37:32;-0.20;99.90
2010;DHT22;1008;47.404;8.502;2024-01-11T14:39:59;-0.20;99.90
2010;DHT22;1008;47.404;8.502;2024-01-11T14:42:28;0.00;99.90
2010;DHT22;1008;47.404;8.502;2024-01-11T14:44:55;-0.10;99.90
2010;DHT22;1008;47.404;8.502;2024-01-11T14:47:22;-0.20;99.90
2010;DHT22;1008;47.404;8.502;2024-01-11T14:49:49;-0.20;99.90
2010;DHT22;1008;47.404;8.502;2024-01-11T14:52:16;-0.20;99.90
2010;DHT22;1008;47.404;8.502;2024-01-11T14:54:44;-0.20;99.90
2010;DHT22;1008;47.404;8.502;2024-01-11T14:57:11;-0.10;99.90
2010;DHT22;1008;47.404;8.502;2024-01-11T14:59:40;-0.10;99.90
2010;DHT22;1008;47.404;8.502;2024-01-11T15:02:07;-0.20;99.90
2010;DHT22;1008;47.404;8.502;2024-01-11T15:04:34;-0.10;99.90
2010;DHT22;1008;47.404;8.502;2024-01-11T15:07:01;-0.10;99.90
2010;DHT22;1008;47.404;8.502;2024-01-11T15:09:28;-0.20;99.90
2010;DHT22;1008;47.404;8.502;2024-01-11T15:11:55;-0.30;99.90
2010;DHT22;1008;47.404;8.502;2024-01-11T15:14:22;-0.30;99.90
2010;DHT22;1008;47.404;8.502;2024-01-11T15:16:50;-0.30;99.90
2010;DHT22;1008;47.404;8.502;2024-01-11T15:19:16;-0.50;99.90
2010;DHT22;1008;47.404;8.502;2024-01-11T15:21:43;-0.50;99.90
2010;DHT22;1008;47.404;8.502;2024-01-11T15:24:10;-0.50;99.90
2010;DHT22;1008;47.404;8.502;2024-01-11T15:26:36;-0.50;99.90
2010;DHT22;1008;47.404;8.502;2024-01-11T15:29:03;-0.40;99.90
2010;DHT22;1008;47.404;8.502;2024-01-11T15:31:31;-0.40;99.90
2010;DHT22;1008;47.404;8.502;2024-01-11T15:34:02;-0.50;99.90
2010;DHT22;1008;47.404;8.502;2024-01-11T15:36:29;-0.60;99.90
2010;DHT22;1008;47.404;8.502;2024-01-11T15:38:55;-0.80;99.90
2010;DHT22;1008;47.404;8.502;2024-01-11T15:41:22;-0.80;99.90
2010;DHT22;1008;47.404;8.502;2024-01-11T15:43:49;-0.60;99.90
2010;DHT22;1008;47.404;8.502;2024-01-11T15:46:16;-0.50;99.90
2010;DHT22;1008;47.404;8.502;2024-01-11T15:48:42;-0.50;99.90
2010;DHT22;1008;47.404;8.502;2024-01-11T15:51:11;-0.60;99.90
2010;DHT22;1008;47.404;8.502;2024-01-11T15:53:37;-0.60;99.90
2010;DHT22;1008;47.404;8.502;2024-01-11T15:56:05;-0.60;99.90
2010;DHT22;1008;47.404;8.502;2024-01-11T15:58:31;-0.60;99.90
2010;DHT22;1008;47.404;8.502;2024-01-11T16:00:58;-0.70;99.90
2010;DHT22;1008;47.404;8.502;2024-01-11T16:03:25;-0.80;99.90
2010;DHT22;1008;47.404;8.502;2024-01-11T16:05:52;-0.80;99.90
2010;DHT22;1008;47.404;8.502;2024-01-11T16:08:20;-0.80;99.90
2010;DHT22;1008;47.404;8.502;2024-01-11T16:10:47;-0.60;99.90
2010;DHT22;1008;47.404;8.502;2024-01-11T16:13:14;-0.70;99.90
2010;DHT22;1008;47.404;8.502;2024-01-11T16:15:41;-0.80;99.90